»·PEaware :: N516TT 74S-KOLM

N516TT :: 74S-KOLM

FLIGHT INFORMATION

Flight Status: Arrived
Operator: Privately registered:
United States
More flights under this callsign
Pilot: Gareth S. (19921)
Aircraft: Unknown
(ZZZZ)
More flights by this aircraft type
Origin: 74S Anacortes
United States
Destination: KOLM Olympia
United States
More flights between these airports :: More routes between these airports
Route:
File this flight plan on PilotEdge
Remarks:
Altitude:
(Current/Filed)
2,500ft
Speed:
(Current/Filed)
250kts
Departed: 16-Sep-19 12:38 PM
Arrived: 16-Sep-19 01:16 PM
Distance/Time
Traveled:
92nm/0:38
Distance/Time
To Go:
Arrived

Flight Plot

Page will automatically refresh every two minutes.


Map Options




Map Legend


Flown Route
Filed Route
Departure Airport
Arrival Airport
Navaid (VOR, NDB)
Fix

Horizontal Profiles

Position Reports

Time Latitude Longitude Heading Altitude Ground
Speed
16-Sep-19 12:27 48.496900 -122.661850 111 248ft 0kts
16-Sep-19 12:28 48.496900 -122.661850 111 248ft 0kts
16-Sep-19 12:29 48.496900 -122.661850 111 248ft 0kts
16-Sep-19 12:30 48.496900 -122.661850 111 248ft 0kts
16-Sep-19 12:31 48.496900 -122.661850 111 248ft 0kts
16-Sep-19 12:32 48.496900 -122.661850 111 248ft 0kts
16-Sep-19 12:33 48.496900 -122.661850 111 248ft 0kts
16-Sep-19 12:34 48.497006 -122.661965 276 247ft 2kts
16-Sep-19 12:35 48.494782 -122.663819 196 247ft 10kts
16-Sep-19 12:36 48.495098 -122.664348 20 246ft 6kts
16-Sep-19 12:37 48.529325 -122.646076 19 1236ft 179kts
16-Sep-19 12:38 48.544372 -122.677595 260 1314ft 150kts
16-Sep-19 12:39 48.532321 -122.739469 257 1656ft 159kts
16-Sep-19 12:40 48.513476 -122.797572 232 2023ft 157kts
16-Sep-19 12:41 48.482592 -122.842881 225 2393ft 153kts
16-Sep-19 12:42 48.450427 -122.886238 212 1918ft 187kts
16-Sep-19 12:43 48.413749 -122.924394 215 2583ft 147kts
16-Sep-19 12:44 48.367284 -122.975499 216 2520ft 296kts
16-Sep-19 12:45 48.297999 -123.053134 217 2517ft 313kts
16-Sep-19 12:46 48.227927 -123.131453 216 2517ft 312kts
16-Sep-19 12:47 48.158095 -123.189223 178 2475ft 273kts
16-Sep-19 12:48 48.104717 -123.155533 154 2516ft 178kts
16-Sep-19 12:49 48.063869 -123.125917 112 2354ft 171kts
16-Sep-19 12:50 48.047833 -123.061838 104 2531ft 157kts
16-Sep-19 12:51 48.028674 -123.005124 130 2706ft 154kts
16-Sep-19 12:52 48.005503 -122.952864 115 2819ft 159kts
16-Sep-19 12:53 47.986250 -122.888402 113 2690ft 176kts
16-Sep-19 12:54 47.936283 -122.851419 165 2952ft 306kts
16-Sep-19 12:55 47.852011 -122.822673 180 2498ft 310kts
16-Sep-19 12:56 47.765463 -122.827787 182 2499ft 307kts
16-Sep-19 12:57 47.687594 -122.831625 181 2456ft 269kts
16-Sep-19 12:58 47.613854 -122.834235 182 2504ft 266kts
16-Sep-19 12:59 47.544365 -122.837246 183 2493ft 211kts
16-Sep-19 13:00 47.487091 -122.838515 182 2538ft 200kts
16-Sep-19 13:01 47.431589 -122.840350 183 2469ft 193kts
16-Sep-19 13:02 47.384844 -122.840826 180 2292ft 150kts
16-Sep-19 13:03 47.345861 -122.840783 180 2301ft 149kts
16-Sep-19 13:04 47.303174 -122.840970 180 2299ft 153kts
16-Sep-19 13:05 47.260763 -122.842084 184 2300ft 152kts
16-Sep-19 13:06 47.219414 -122.846585 184 2299ft 143kts
16-Sep-19 13:07 47.181677 -122.850615 184 2300ft 140kts
16-Sep-19 13:08 47.148816 -122.853049 188 2298ft 103kts
16-Sep-19 13:09 47.116933 -122.861376 192 2300ft 121kts
16-Sep-19 13:10 47.083511 -122.871179 192 2299ft 122kts
16-Sep-19 13:11 47.048865 -122.881361 192 1684ft 122kts
16-Sep-19 13:12 47.020907 -122.889414 192 1133ft 92kts
16-Sep-19 13:13 46.995787 -122.896840 193 645ft 94kts
16-Sep-19 13:14 46.971928 -122.903670 192 205ft 80kts
16-Sep-19 13:15 46.967265 -122.904020 92 207ft 0kts
16-Sep-19 13:16 46.967256 -122.903868 96 207ft 0kts
16-Sep-19 13:17 46.968093 -122.900832 8 207ft 14kts
16-Sep-19 13:18 46.971699 -122.897682 47 206ft 20kts
16-Sep-19 13:19 46.973029 -122.895224 90 207ft 4kts
16-Sep-19 13:20 46.972804 -122.894936 139 207ft 0kts

Navigation Log

Ident Type
Flight plan parsing failed, navigation log unavailable